createdAt,value
2023-01-02T00:01:36.062Z,93.52
2023-01-02T00:04:38.674Z,93.79
2023-01-02T00:07:48.022Z,93.57
2023-01-02T00:10:53.008Z,93.59
2023-01-02T00:13:55.923Z,94.38
2023-01-02T00:16:58.637Z,94.07
2023-01-02T00:20:01.857Z,93.43
2023-01-02T00:23:07.116Z,93.51
2023-01-02T00:26:14.186Z,93.24
2023-01-02T00:29:16.806Z,93.42
2023-01-02T00:32:19.506Z,93.94
2023-01-02T00:35:22.190Z,93.86
2023-01-02T00:38:26.295Z,93.80
2023-01-02T00:41:29.023Z,93.75
2023-01-02T00:44:32.052Z,93.43
2023-01-02T00:47:37.018Z,93.13
2023-01-02T00:50:39.720Z,92.65
2023-01-02T00:53:49.757Z,92.67
2023-01-02T00:56:52.397Z,92.66
2023-01-02T00:59:55.051Z,93.03
2023-01-02T01:02:58.377Z,93.21
2023-01-02T01:06:06.347Z,93.89
2023-01-02T01:09:13.458Z,93.93
2023-01-02T01:12:16.099Z,94.13
2023-01-02T01:15:18.862Z,94.15
2023-01-02T01:18:21.484Z,94.40
2023-01-02T01:21:24.810Z,94.02
2023-01-02T01:24:28.976Z,94.13
2023-01-02T01:27:31.667Z,94.04
2023-01-02T01:30:37.380Z,94.31
2023-01-02T01:33:42.145Z,94.33
2023-01-02T01:36:44.819Z,94.36
2023-01-02T01:39:52.689Z,93.97
2023-01-02T01:43:01.043Z,94.67
2023-01-02T01:46:07.685Z,94.59
2023-01-02T01:49:14.830Z,94.65
2023-01-02T01:52:23.256Z,94.61
2023-01-02T01:55:32.558Z,94.88
2023-01-02T01:58:39.350Z,94.40
2023-01-02T02:01:43.536Z,94.86
2023-01-02T02:04:49.247Z,95.11
2023-01-02T02:08:01.974Z,95.41
2023-01-02T02:11:07.028Z,95.57
2023-01-02T02:14:09.694Z,95.93
2023-01-02T02:17:24.091Z,95.75
2023-01-02T02:20:34.502Z,94.71
2023-01-02T02:24:08.776Z,95.50
2023-01-02T02:27:51.578Z,95.08
2023-01-02T02:30:58.526Z,95.30
2023-01-02T02:34:10.701Z,94.95
2023-01-02T02:37:25.169Z,95.52
2023-01-02T02:40:36.827Z,95.20
2023-01-02T02:43:52.411Z,95.17
2023-01-02T02:47:02.524Z,95.47
2023-01-02T02:50:11.172Z,95.11
2023-01-02T02:53:20.357Z,95.05
2023-01-02T02:56:25.999Z,95.41
2023-01-02T02:59:29.598Z,95.87
2023-01-02T03:02:34.355Z,96.08
2023-01-02T03:05:41.776Z,95.70
2023-01-02T03:08:59.383Z,95.58
2023-01-02T03:12:12.121Z,95.36
2023-01-02T03:15:24.563Z,95.87
2023-01-02T03:18:35.496Z,95.01
2023-01-02T03:21:42.378Z,94.38
2023-01-02T03:24:47.710Z,95.02
2023-01-02T03:27:58.880Z,95.29
2023-01-02T03:31:03.979Z,95.47
2023-01-02T03:34:14.192Z,95.25
2023-01-02T03:37:22.977Z,95.50
2023-01-02T03:40:40.031Z,95.70
2023-01-02T03:43:50.106Z,95.51
2023-01-02T03:47:06.407Z,95.43
2023-01-02T03:50:16.483Z,95.78
2023-01-02T03:53:20.771Z,95.88
2023-01-02T03:56:30.807Z,96.01
2023-01-02T03:59:42.226Z,95.38
2023-01-02T04:02:50.643Z,94.98
2023-01-02T04:06:05.744Z,95.25
2023-01-02T04:09:11.449Z,95.20
2023-01-02T04:12:20.399Z,95.35
2023-01-02T04:15:25.069Z,95.29
2023-01-02T04:18:32.309Z,95.19
2023-01-02T04:21:39.673Z,95.54
2023-01-02T04:24:51.353Z,95.70
2023-01-02T04:28:00.296Z,95.82
2023-01-02T04:31:20.617Z,95.67
2023-01-02T04:34:24.809Z,95.80
2023-01-02T04:37:31.021Z,95.78
2023-01-02T04:40:37.625Z,95.46
2023-01-02T04:43:43.337Z,95.16
2023-01-02T04:46:46.012Z,94.92
2023-01-02T04:49:54.930Z,95.14
2023-01-02T04:52:58.946Z,95.76
2023-01-02T04:56:02.050Z,95.92
2023-01-02T04:59:04.775Z,95.69
2023-01-02T05:02:07.564Z,95.21
2023-01-02T05:05:11.636Z,95.81
2023-01-02T05:08:16.578Z,95.62
2023-01-02T05:11:22.490Z,95.60
2023-01-02T05:14:25.219Z,96.12
2023-01-02T05:17:27.924Z,96.57
2023-01-02T05:20:30.582Z,96.53
2023-01-02T05:23:50.330Z,96.48
2023-01-02T05:26:53.030Z,96.09
2023-01-02T05:29:55.706Z,96.90
2023-01-02T05:32:58.535Z,96.08
2023-01-02T05:36:01.232Z,96.34
2023-01-02T05:39:08.565Z,96.99
2023-01-02T05:42:11.255Z,96.66
2023-01-02T05:45:14.005Z,96.46
2023-01-02T05:48:16.754Z,96.47
2023-01-02T05:51:20.502Z,96.77
2023-01-02T05:54:24.712Z,96.67
2023-01-02T05:57:27.547Z,96.50
2023-01-02T06:00:30.523Z,96.59
2023-01-02T06:03:33.406Z,96.33
2023-01-02T06:06:38.200Z,96.58
2023-01-02T06:09:42.271Z,96.29
2023-01-02T06:12:45.011Z,96.33
2023-01-02T06:15:47.699Z,96.73
2023-01-02T06:18:50.804Z,97.07
2023-01-02T06:21:53.516Z,97.00
2023-01-02T06:24:57.597Z,97.17
2023-01-02T06:28:00.319Z,97.25
2023-01-02T06:31:05.738Z,97.01
2023-01-02T06:34:08.516Z,96.94
2023-01-02T06:37:11.568Z,96.76
2023-01-02T06:40:15.848Z,96.64
2023-01-02T06:43:18.563Z,96.56
2023-01-02T06:46:23.344Z,96.33
2023-01-02T06:49:26.059Z,96.42
2023-01-02T06:52:29.543Z,96.51
2023-01-02T06:55:33.613Z,96.28
2023-01-02T06:58:38.106Z,96.86
2023-01-02T07:01:41.221Z,96.78
2023-01-02T07:04:44.101Z,96.70
2023-01-02T07:07:47.022Z,96.63
2023-01-02T07:10:53.134Z,96.92
2023-01-02T07:13:56.474Z,96.77
2023-01-02T07:16:59.302Z,96.50
2023-01-02T07:20:02.804Z,96.35
2023-01-02T07:23:05.591Z,96.21
2023-01-02T07:26:10.500Z,96.37
2023-01-02T07:29:13.209Z,96.14
2023-01-02T07:32:17.453Z,96.31
2023-01-02T07:35:21.530Z,97.02
2023-01-02T07:38:24.218Z,97.36
2023-01-02T07:41:28.337Z,97.06
2023-01-02T07:44:31.010Z,97.36
2023-01-02T07:47:33.715Z,97.34
2023-01-02T07:50:36.503Z,97.16
2023-01-02T07:53:41.542Z,97.17
2023-01-02T07:56:45.794Z,97.20
2023-01-02T07:59:50.100Z,97.30
2023-01-02T08:02:55.241Z,96.92
2023-01-02T08:06:03.800Z,97.22
2023-01-02T08:09:06.593Z,96.54
2023-01-02T08:12:11.469Z,97.14
2023-01-02T08:15:14.227Z,97.37
2023-01-02T08:18:16.964Z,97.04
2023-01-02T08:21:19.842Z,97.22
2023-01-02T08:24:22.558Z,97.05
2023-01-02T08:27:26.603Z,97.27
2023-01-02T08:30:29.388Z,96.84
2023-01-02T08:33:32.041Z,96.76
2023-01-02T08:36:35.718Z,97.61
2023-01-02T08:39:38.425Z,96.88
2023-01-02T08:42:43.747Z,96.64
2023-01-02T08:45:46.481Z,96.58
2023-01-02T08:48:49.264Z,96.19
2023-01-02T08:51:51.979Z,96.27
2023-01-02T08:54:54.762Z,96.61
2023-01-02T08:57:58.772Z,96.94
2023-01-02T09:01:02.299Z,95.89
2023-01-02T09:04:12.015Z,95.41
2023-01-02T09:07:15.897Z,94.99
2023-01-02T09:10:18.609Z,94.55
2023-01-02T09:13:22.673Z,94.85
2023-01-02T09:16:25.564Z,95.28
2023-01-02T09:19:28.412Z,95.25
2023-01-02T09:22:31.138Z,94.89
2023-01-02T09:25:33.809Z,94.90
2023-01-02T09:28:38.183Z,94.76
2023-01-02T09:31:41.501Z,94.17
2023-01-02T09:34:50.246Z,93.85
2023-01-02T09:37:52.969Z,93.77
2023-01-02T09:40:56.346Z,93.68
2023-01-02T09:44:03.031Z,92.54
2023-01-02T09:47:09.207Z,93.09
2023-01-02T09:50:17.050Z,93.10
2023-01-02T09:53:19.823Z,92.71
2023-01-02T09:56:30.373Z,92.35
2023-01-02T09:59:47.927Z,92.35
2023-01-02T10:03:07.892Z,92.15
2023-01-02T10:06:16.195Z,91.32
2023-01-02T10:09:27.389Z,89.73
2023-01-02T10:12:37.340Z,88.98
2023-01-02T10:15:45.089Z,87.20
2023-01-02T10:18:52.556Z,85.41
2023-01-02T10:22:00.131Z,83.52
2023-01-02T10:25:07.998Z,81.34
2023-01-02T10:28:23.173Z,80.66
2023-01-02T10:31:40.739Z,78.29
2023-01-02T10:34:51.671Z,74.88
2023-01-02T10:37:56.337Z,75.08
2023-01-02T10:40:59.055Z,74.42
2023-01-02T10:44:03.705Z,74.34
2023-01-02T10:47:14.382Z,73.26
2023-01-02T10:50:19.966Z,73.17
2023-01-02T10:53:29.541Z,72.10
2023-01-02T10:56:34.000Z,71.01
2023-01-02T10:59:36.728Z,69.62
2023-01-02T11:02:42.210Z,68.87
2023-01-02T11:05:48.073Z,68.60
2023-01-02T11:08:58.071Z,67.74
2023-01-02T11:12:10.171Z,67.84
2023-01-02T11:15:14.831Z,67.03
2023-01-02T11:18:23.805Z,65.72
2023-01-02T11:21:30.003Z,63.43
2023-01-02T11:24:35.276Z,63.49
2023-01-02T11:27:42.956Z,61.38
2023-01-02T11:30:48.540Z,59.06
2023-01-02T11:33:52.619Z,59.89
2023-01-02T11:37:04.359Z,60.69
2023-01-02T11:40:25.311Z,56.66
2023-01-02T11:43:50.083Z,58.72
2023-01-02T11:46:54.404Z,59.20
2023-01-02T11:49:59.242Z,59.76
2023-01-02T11:53:03.966Z,59.28
2023-01-02T11:56:12.005Z,57.38
2023-01-02T11:59:19.362Z,57.26
2023-01-02T12:02:27.967Z,54.93
2023-01-02T12:05:43.800Z,54.93
2023-01-02T12:09:00.819Z,55.50
2023-01-02T12:12:23.306Z,55.49
2023-01-02T12:15:47.947Z,55.66
2023-01-02T12:19:06.736Z,57.09
2023-01-02T12:22:33.243Z,55.41
2023-01-02T12:25:52.692Z,55.77
2023-01-02T12:29:10.827Z,57.38
2023-01-02T12:32:31.368Z,57.21
2023-01-02T12:36:12.596Z,57.87
2023-01-02T12:39:42.489Z,58.74
2023-01-02T12:43:05.986Z,57.80
2023-01-02T12:46:23.496Z,56.45
2023-01-02T12:49:53.101Z,58.17
2023-01-02T12:53:09.442Z,57.77
2023-01-02T12:56:18.932Z,58.00
2023-01-02T12:59:39.456Z,58.22
2023-01-02T13:03:01.922Z,56.62
2023-01-02T13:06:45.357Z,57.31
2023-01-02T13:09:40.805Z,57.35
2023-01-02T13:12:46.246Z,58.39
2023-01-02T13:15:51.831Z,59.37
2023-01-02T13:19:06.815Z,60.65
2023-01-02T13:22:20.825Z,61.42
2023-01-02T13:25:24.700Z,62.99
2023-01-02T13:28:29.114Z,64.17
2023-01-02T13:31:49.551Z,65.27
2023-01-02T13:34:54.773Z,66.46
2023-01-02T13:38:07.849Z,67.71
2023-01-02T13:41:16.877Z,68.27
2023-01-02T13:44:32.825Z,69.26
2023-01-02T13:47:38.345Z,70.32
2023-01-02T13:50:41.282Z,70.42
2023-01-02T13:53:46.228Z,70.85
2023-01-02T13:57:17.862Z,71.41
2023-01-02T14:00:38.205Z,71.54
2023-01-02T14:03:41.205Z,71.48
2023-01-02T14:06:53.531Z,71.62
2023-01-02T14:10:14.656Z,72.02
2023-01-02T14:13:25.558Z,71.99
2023-01-02T14:16:51.568Z,71.98
2023-01-02T14:20:22.948Z,72.20
2023-01-02T14:23:29.572Z,72.85
2023-01-02T14:26:35.716Z,73.03
2023-01-02T14:29:50.603Z,73.21
2023-01-02T14:32:59.938Z,73.97
2023-01-02T14:36:07.642Z,73.85
2023-01-02T14:39:19.776Z,74.14
2023-01-02T14:42:45.062Z,74.45
2023-01-02T14:45:51.211Z,74.51
2023-01-02T14:49:00.253Z,74.85
2023-01-02T14:52:07.938Z,75.23
2023-01-02T14:55:16.912Z,75.25
2023-01-02T14:58:26.591Z,75.48
2023-01-02T15:01:43.399Z,75.50
2023-01-02T15:04:51.957Z,75.05
2023-01-02T15:07:56.793Z,74.55
2023-01-02T15:11:23.123Z,74.53
2023-01-02T15:14:25.852Z,74.27
2023-01-02T15:17:28.667Z,73.86
2023-01-02T15:20:34.829Z,73.62
2023-01-02T15:23:43.299Z,73.79
2023-01-02T15:26:46.038Z,73.34
2023-01-02T15:29:51.252Z,73.73
2023-01-02T15:32:54.067Z,73.53
2023-01-02T15:36:01.941Z,73.71
2023-01-02T15:39:15.238Z,73.34
2023-01-02T15:42:39.656Z,73.44
2023-01-02T15:45:45.018Z,73.37
2023-01-02T15:48:50.107Z,73.64
2023-01-02T15:51:57.585Z,73.30
2023-01-02T15:55:01.045Z,73.89
2023-01-02T15:58:21.756Z,73.75
2023-01-02T16:01:25.037Z,74.22
2023-01-02T16:04:29.489Z,74.35
2023-01-02T16:07:36.748Z,74.07
2023-01-02T16:10:39.696Z,73.76
2023-01-02T16:14:04.959Z,73.99
2023-01-02T16:17:20.658Z,73.49
2023-01-02T16:20:25.237Z,73.53
2023-01-02T16:23:29.399Z,73.46
2023-01-02T16:26:34.026Z,73.42
2023-01-02T16:29:42.744Z,73.69
2023-01-02T16:32:49.326Z,74.30
2023-01-02T16:36:00.336Z,75.05
2023-01-02T16:39:09.599Z,75.87
2023-01-02T16:42:29.972Z,76.46
2023-01-02T16:45:35.148Z,77.30
2023-01-02T16:48:40.281Z,77.81
2023-01-02T16:51:45.120Z,78.53
2023-01-02T16:54:53.871Z,78.74
2023-01-02T16:57:57.011Z,79.49
2023-01-02T17:00:59.783Z,80.60
2023-01-02T17:04:03.052Z,82.07
2023-01-02T17:07:06.772Z,83.67
2023-01-02T17:10:11.170Z,84.45
2023-01-02T17:13:14.022Z,85.21
2023-01-02T17:16:17.541Z,85.03
2023-01-02T17:19:21.372Z,85.08
2023-01-02T17:22:24.130Z,84.94
2023-01-02T17:25:29.055Z,84.45
2023-01-02T17:28:31.748Z,84.53
2023-01-02T17:31:34.485Z,84.60
2023-01-02T17:34:37.152Z,84.60
2023-01-02T17:37:39.938Z,84.36
2023-01-02T17:40:44.118Z,84.31
2023-01-02T17:44:02.600Z,84.89
2023-01-02T17:50:29.748Z,85.58
2023-01-02T17:53:33.002Z,85.73
2023-01-02T17:56:37.127Z,85.83
2023-01-02T17:59:41.122Z,85.63
2023-01-02T18:02:44.477Z,85.54
2023-01-02T18:05:47.290Z,85.47
2023-01-02T18:08:51.093Z,85.62
2023-01-02T18:11:55.266Z,84.72
2023-01-02T18:15:03.865Z,85.11
2023-01-02T18:18:14.044Z,84.85
2023-01-02T18:21:19.269Z,84.92
2023-01-02T18:24:25.656Z,84.71
2023-01-02T18:27:32.766Z,84.45
2023-01-02T18:30:36.727Z,84.36
2023-01-02T18:33:39.515Z,83.99
2023-01-02T18:36:42.326Z,83.36
2023-01-02T18:39:45.214Z,83.53
2023-01-02T18:42:55.409Z,83.02
2023-01-02T18:46:02.384Z,83.04
2023-01-02T18:49:16.379Z,82.93
2023-01-02T18:52:25.646Z,82.44
2023-01-02T18:55:34.065Z,82.58
2023-01-02T18:58:44.090Z,82.82
2023-01-02T19:01:51.418Z,82.84
2023-01-02T19:04:56.246Z,82.51
2023-01-02T19:08:14.473Z,82.35
2023-01-02T19:11:34.236Z,82.47
2023-01-02T19:14:42.114Z,82.46
2023-01-02T19:17:44.879Z,82.92
2023-01-02T19:20:55.451Z,82.78
2023-01-02T19:23:59.612Z,82.78
2023-01-02T19:27:10.743Z,83.13
2023-01-02T19:30:30.296Z,82.61
2023-01-02T19:33:39.417Z,83.01
2023-01-02T19:36:43.114Z,82.40
2023-01-02T19:39:49.282Z,82.95
2023-01-02T19:42:53.850Z,82.92
2023-01-02T19:45:57.976Z,83.41
2023-01-02T19:49:00.818Z,83.52
2023-01-02T19:52:03.617Z,83.45
2023-01-02T19:55:08.971Z,83.28
2023-01-02T19:58:11.683Z,83.20
2023-01-02T20:01:16.017Z,82.97
2023-01-02T20:04:19.144Z,83.17
2023-01-02T20:07:22.849Z,82.78
2023-01-02T20:10:26.479Z,82.79
2023-01-02T20:13:29.159Z,82.97
2023-01-02T20:16:33.181Z,82.73
2023-01-02T20:19:36.507Z,82.65
2023-01-02T20:22:39.280Z,82.67
2023-01-02T20:25:42.087Z,82.86
2023-01-02T20:28:44.913Z,81.71
2023-01-02T20:31:49.769Z,82.11
2023-01-02T20:34:53.282Z,81.75
2023-01-02T20:37:56.191Z,81.56
2023-01-02T20:40:59.050Z,81.96
2023-01-02T20:44:02.219Z,81.91
2023-01-02T20:47:07.048Z,81.66
2023-01-02T20:50:10.505Z,79.56
2023-01-02T20:53:13.277Z,79.29
2023-01-02T20:56:16.274Z,79.08
2023-01-02T20:59:19.926Z,78.73
2023-01-02T21:02:24.153Z,79.79
2023-01-02T21:05:26.986Z,80.14
2023-01-02T21:08:29.952Z,80.20
2023-01-02T21:11:33.019Z,80.40
2023-01-02T21:14:37.899Z,80.64
2023-01-02T21:17:42.181Z,80.47
2023-01-02T21:20:47.141Z,80.54
2023-01-02T21:23:51.279Z,81.03
2023-01-02T21:26:53.973Z,80.58
2023-01-02T21:29:56.726Z,80.61
2023-01-02T21:33:00.797Z,80.61
2023-01-02T21:36:08.420Z,80.87
2023-01-02T21:39:11.651Z,80.82
2023-01-02T21:42:17.221Z,80.69
2023-01-02T21:45:19.902Z,80.66
2023-01-02T21:48:23.943Z,80.13
2023-01-02T21:51:32.367Z,80.55
2023-01-02T21:54:35.817Z,80.38
2023-01-02T21:58:11.493Z,80.32
2023-01-02T22:01:02.697Z,80.00
2023-01-02T22:04:07.123Z,80.12
2023-01-02T22:07:31.364Z,80.26
2023-01-02T22:10:32.732Z,80.72
2023-01-02T22:13:35.458Z,80.62
2023-01-02T22:16:38.264Z,80.83
2023-01-02T22:19:42.403Z,80.87
2023-01-02T22:22:45.263Z,81.08
2023-01-02T22:25:48.161Z,81.20
2023-01-02T22:28:51.517Z,81.14
2023-01-02T22:31:57.488Z,81.20
2023-01-02T22:35:03.373Z,81.00
2023-01-02T22:38:06.189Z,81.41
2023-01-02T22:41:09.949Z,81.65
2023-01-02T22:44:15.772Z,81.70
2023-01-02T22:47:24.779Z,81.52
2023-01-02T22:50:31.798Z,81.91
2023-01-02T22:53:36.323Z,81.91
2023-01-02T22:56:39.049Z,82.31
2023-01-02T22:59:42.741Z,82.15
2023-01-02T23:02:46.041Z,82.36
2023-01-02T23:05:50.262Z,82.03
2023-01-02T23:08:53.839Z,82.19
2023-01-02T23:11:56.625Z,82.08
2023-01-02T23:14:59.335Z,82.35
2023-01-02T23:18:19.406Z,82.47
2023-01-02T23:21:24.369Z,82.78
2023-01-02T23:24:29.418Z,83.18
2023-01-02T23:27:33.746Z,83.10
2023-01-02T23:30:36.691Z,83.49
2023-01-02T23:33:39.462Z,83.85
2023-01-02T23:36:44.387Z,83.76
2023-01-02T23:39:47.126Z,83.74
2023-01-02T23:42:49.801Z,83.77
2023-01-02T23:45:52.561Z,83.62
2023-01-02T23:48:55.358Z,83.62
2023-01-02T23:51:59.573Z,83.62
2023-01-02T23:55:02.306Z,83.86
2023-01-02T23:58:05.154Z,83.32
